Palonegro Airport
SKBG : rendu visible

Aérodrome :











RETROUVEZ-NOUS SUR...

 
LOGIN :

S'inscrire | Disclaimer

   EN    FR    IT 

 









Légende :    VFR   VFR Marginal   IFR   IFR Intensif   IFR Très Intensif
Visi : 
Plafond : 
>= 8 km
>= 3000ft
5 à 8 km
1000 à 3000 ft
1500m à 5 km
500 à 1000 ft
800 à 1500m
200 à 500 ft
< 800m
< 200 ft
Symboles :   Orages  Brouillard  Fortes neiges  Fortes précipitations  Vent > 20 kt






- Altitude de l'aérodrome : 3897 ft
- Code IATA : BGA


SKBG - Palonegro

DERNIER METAR :
  • 042100Z 31007KT 9999 FEW010 23/20 Q1013 RMK A2993

METARs EXPIRÉS :
  • 042000Z 32008KT 9999 SCT010 26/20 Q1013 RMK A2993
  • 041900Z 33008KT 9999 SCT010 26/20 Q1014 RMK A2995

TAF TAF SKBG
Valide du 04 à 18h jusqu'au 05 à 18h UTC


041630Z 0418/0518 32008KT 9999 SCT015
TEMPO 0418/0421 DZRA SCT015CB
BECMG 0502/0504 VRB02KT SCT010 SCT070
PROB40
TEMPO 0509/0512 0200 FG VV///
TEMPO 0512/0514 3000 BCFG BKN008 TX26/0418Z TN18/0510Z
FIR SKED / Amérique du Sud



MET'MAP, la Météo Aéronautique d'un coup d'oeil ! - Copyright ORBIFLY Décembre 2007 - Disclaimer

ORBIFLY MET'MAP TEAM :

Programmation & Développement : Alexandra Zaïnal
Sur une idée originale de : Baudouin d'Aumeries
Assistance à la programmation : Marc-Olivier Méhu
Soutien technique & logistique : Manuel Goepfert

Contact : metmap@orbifly.com




SOURCES & CREDITS :

   NOAA       Earth
Advisory